Moose Factory, Canada
Current Conditions -  °F | °C
As of 11:00 AM on Saturday 20 Dec 2014 (Local Time) from CYMO Reporting Station
Clear Clear  
Wind Chill:   Ceiling: Unl
Heat Index:   Visibility: 9mi
Dew Point: -4°   Wind: 2mph
Humidity: 85%   Direction: 190°S
Pressure: 30.37"   Gusts: NA
Location:  51.26°N, 80.6°W
Report Text: CYMO 201600Z AUTO 19002KT 9SM CLR M18/M20 A3037 RMK SLP285
Loading
Personal Weather Stations






























Interactive Weather Map New forecast layout! Learn more

10-Day Weather Forecast

Advertisements
Track Severe Weather on mobile